Clarion, IA

18:49 CDT le 02 septembre 2014 (GMT -0500)
Clarion Municipal | Change Station
CLOSE
Current Station
Aéroport
Location: Clarion,
Altitude: 1161 ft
Stations météo à proximité

Alt. 1161 ft 42.74 °N, 93.76 °W | Updated 14 minutes ago

Clear
Ciel dégagé
75 ° F
Paraît 75 ° F
N
5
Vent Variable Vent de OSO

Aujourd'hui
Haut(e) -- | Bas -- ° F
--% Risque de précip.
Hier
Haut(e) -- | Bas -- ° F
Precip. -- pouce
6:40 AM 7:47 PM
Premier quartier, 56% visible
Pression 29.93 pouce
Visibilité 10.0 Miles terrestres
Nuages Ciel dégagé
Point de rosée 61 ° F
Humidité 61%
Précipitations 0.12 pouce
Profondeur de la couche neigeuse Non disponible.
UV 1 sur 12
Pollen 9.10 sur 12
Qualité de l'air Non disponible.
Flu Activity Non disponible.
METAR KCAV 022335Z AUTO 24004KT 10SM CLR 24/16 A2993 RMK AO2

More Conditions Fewer Conditions

Pression 29.93 pouce
Visibilité 10.0 Miles terrestres
Nuages Ciel dégagé
Point de rosée 61 ° F
Humidité 61%
Précipitations 0.12 pouce
Profondeur de la couche neigeuse Non disponible.
UV 1 sur 12
Pollen 9.10 sur 12
Qualité de l'air Non disponible.
Flu Activity Non disponible.
METAR KCAV 022335Z AUTO 24004KT 10SM CLR 24/16 A2993 RMK AO2

More Conditions Fewer Conditions

10-Day Weather Forecast

Almanac

Astronomie

Sep. 02, 2014 Lever Coucher
Temps réel 06:40 CDT 19:47 CDT
Crépuscule civil 06:11 CDT 20:16 CDT
Crépuscule nautique 05:37 CDT 20:51 CDT
Crépuscule astronomique 05:00 CDT 21:27 CDT
Lune 14:35 CDT Pas de coucher de lune
Durée de lumière visible 14h 04m
Longueur du jour
13h 06m
Tomorrow will be 2m 48s shorter.
Premier quartier, 56% of the Moon is Illuminated
Aujourd'hui
Premier quartier
Sep 8
Pleine lune
Sep 15
Dernier quartier
Sep 24
Nouveau
Oct 1
Premier quartier

Extrêmes aujourd'hui

State Highs State Lows

Community

WunderPhotos

Upload Photos

1,749,799 Photos téléchargées !

Nearby

Épaisseur de neige

Station Depth Altitude
Pas de nouvelles chutes de neige

Activité sismique

Ville Distance Mag. Time & Date
No recent earthquake activity has been reported nearby.
Minimum magnitude displayed is 2.5.

Températures des eaux côtières

Lieu Température
Aucun rapport de station

Stations météo à proximité